createdAt,value
2024-04-07T00:00:37.714Z,83.64
2024-04-07T00:03:49.398Z,83.25
2024-04-07T00:06:19.928Z,83.12
2024-04-07T00:08:51.375Z,83.29
2024-04-07T00:11:21.904Z,83.29
2024-04-07T00:13:53.865Z,83.22
2024-04-07T00:16:24.497Z,83.23
2024-04-07T00:18:55.947Z,83.23
2024-04-07T00:21:28.527Z,83.40
2024-04-07T00:24:01.710Z,83.44
2024-04-07T00:26:32.455Z,83.39
2024-04-07T00:29:04.012Z,83.20
2024-04-07T00:31:34.443Z,83.14
2024-04-07T00:34:06.086Z,82.95
2024-04-07T00:36:36.513Z,82.79
2024-04-07T00:39:09.394Z,82.66
2024-04-07T00:41:39.617Z,82.52
2024-04-07T00:44:11.489Z,82.65
2024-04-07T00:46:42.650Z,82.97
2024-04-07T00:49:14.688Z,83.01
2024-04-07T00:51:45.114Z,82.96
2024-04-07T00:54:16.865Z,82.89
2024-04-07T00:56:47.191Z,82.89
2024-04-07T00:59:19.261Z,82.94
2024-04-07T01:01:49.606Z,82.80
2024-04-07T01:04:21.238Z,82.95
2024-04-07T01:06:52.075Z,83.07
2024-04-07T01:09:25.877Z,83.19
2024-04-07T01:11:56.413Z,83.32
2024-04-07T01:14:28.064Z,83.52
2024-04-07T01:16:58.585Z,83.53
2024-04-07T01:19:30.245Z,83.40
2024-04-07T01:22:01.021Z,83.46
2024-04-07T01:24:32.736Z,83.54
2024-04-07T01:27:03.367Z,83.69
2024-04-07T01:29:35.025Z,83.83
2024-04-07T01:32:05.664Z,83.98
2024-04-07T01:34:37.618Z,84.23
2024-04-07T01:37:07.845Z,84.38
2024-04-07T01:39:39.692Z,84.20
2024-04-07T01:42:09.813Z,84.22
2024-04-07T01:44:41.467Z,84.39
2024-04-07T01:47:11.798Z,84.61
2024-04-07T01:49:43.967Z,84.97
2024-04-07T01:52:14.287Z,85.14
2024-04-07T01:54:46.245Z,85.18
2024-04-07T01:57:16.676Z,85.58
2024-04-07T01:59:48.529Z,85.81
2024-04-07T02:02:20.825Z,85.92
2024-04-07T02:04:52.969Z,86.03
2024-04-07T02:07:24.213Z,86.17
2024-04-07T02:09:55.777Z,86.35
2024-04-07T02:12:26.199Z,86.10
2024-04-07T02:14:57.849Z,86.09
2024-04-07T02:17:28.475Z,85.80
2024-04-07T02:20:00.398Z,86.04
2024-04-07T02:22:30.764Z,86.38
2024-04-07T02:25:02.417Z,86.43
2024-04-07T02:27:32.845Z,86.38
2024-04-07T02:30:05.843Z,86.22
2024-04-07T02:32:36.364Z,86.14
2024-04-07T02:35:08.058Z,86.31
2024-04-07T02:37:38.548Z,86.40
2024-04-07T02:40:10.674Z,86.67
2024-04-07T02:42:40.799Z,86.90
2024-04-07T02:45:30.918Z,87.09
2024-04-07T02:48:05.759Z,87.46
2024-04-07T02:50:38.936Z,87.72
2024-04-07T02:53:09.566Z,87.91
2024-04-07T02:55:41.347Z,88.27
2024-04-07T02:58:11.851Z,88.43
2024-04-07T03:00:44.020Z,88.34
2024-04-07T03:03:14.451Z,88.34
2024-04-07T03:05:46.041Z,88.39
2024-04-07T03:08:16.638Z,88.22
2024-04-07T03:10:58.732Z,87.85
2024-04-07T03:13:30.184Z,87.46
2024-04-07T03:16:00.911Z,87.09
2024-04-07T03:18:32.365Z,86.76
2024-04-07T03:21:04.134Z,86.53
2024-04-07T03:23:35.574Z,86.61
2024-04-07T03:26:06.207Z,86.56
2024-04-07T03:28:37.667Z,86.57
2024-04-07T03:31:08.185Z,86.58
2024-04-07T03:33:40.360Z,86.71
2024-04-07T03:36:10.773Z,86.70
2024-04-07T03:38:42.440Z,86.83
2024-04-07T03:41:12.961Z,86.44
2024-04-07T03:43:44.525Z,86.17
2024-04-07T03:46:16.298Z,86.11
2024-04-07T03:48:47.724Z,85.84
2024-04-07T03:51:18.252Z,85.24
2024-04-07T03:53:49.699Z,84.90
2024-04-07T03:56:22.584Z,84.48
2024-04-07T03:58:54.276Z,84.54
2024-04-07T04:01:25.175Z,84.61
2024-04-07T04:03:56.736Z,84.47
2024-04-07T04:06:29.716Z,84.29
2024-04-07T04:09:01.903Z,84.30
2024-04-07T04:11:32.306Z,84.53
2024-04-07T04:14:04.168Z,84.72
2024-04-07T04:16:34.600Z,84.64
2024-04-07T04:19:06.151Z,84.16
2024-04-07T04:21:36.882Z,83.71
2024-04-07T04:24:08.639Z,83.84
2024-04-07T04:26:39.067Z,83.65
2024-04-07T04:29:14.425Z,83.50
2024-04-07T04:31:46.095Z,83.44
2024-04-07T04:34:16.791Z,83.17
2024-04-07T04:36:50.129Z,83.03
2024-04-07T04:39:20.830Z,83.13
2024-04-07T04:41:52.370Z,83.21
2024-04-07T04:44:22.907Z,82.78
2024-04-07T04:46:54.391Z,82.45
2024-04-07T04:49:24.778Z,82.64
2024-04-07T04:51:56.329Z,82.40
2024-04-07T04:54:27.685Z,81.83
2024-04-07T04:56:59.130Z,81.04
2024-04-07T04:59:30.069Z,79.62
2024-04-07T05:02:01.625Z,78.28
2024-04-07T05:04:32.575Z,76.43
2024-04-07T05:07:05.814Z,74.32
2024-04-07T05:09:36.588Z,72.61
2024-04-07T05:12:08.646Z,70.98
2024-04-07T05:14:39.075Z,69.72
2024-04-07T05:17:11.241Z,68.13
2024-04-07T05:19:41.672Z,65.55
2024-04-07T05:22:13.231Z,62.58
2024-04-07T05:24:44.162Z,59.85
2024-04-07T05:27:15.813Z,57.17
2024-04-07T05:29:49.637Z,54.84
2024-04-07T05:32:21.077Z,51.88
2024-04-07T05:34:51.516Z,49.24
2024-04-07T05:37:23.255Z,45.70
2024-04-07T05:39:54.095Z,43.72
2024-04-07T05:42:28.814Z,40.28
2024-04-07T05:45:01.500Z,38.12
2024-04-07T05:47:31.928Z,36.74
2024-04-07T05:50:03.783Z,34.77
2024-04-07T05:52:34.526Z,32.41
2024-04-07T05:55:06.808Z,29.94
2024-04-07T05:57:38.051Z,28.02
2024-04-07T06:00:10.256Z,27.97
2024-04-07T06:02:45.648Z,27.53
2024-04-07T06:05:16.171Z,26.47
2024-04-07T06:07:47.927Z,26.40
2024-04-07T06:10:18.152Z,25.94
2024-04-07T06:12:50.260Z,25.08
2024-04-07T06:15:20.440Z,24.75
2024-04-07T06:17:52.319Z,23.98
2024-04-07T06:20:22.619Z,23.18
2024-04-07T06:22:54.479Z,22.58
2024-04-07T06:25:24.809Z,22.53
2024-04-07T06:27:56.666Z,22.17
2024-04-07T06:30:27.088Z,21.57
2024-04-07T06:32:58.852Z,22.05
2024-04-07T06:35:29.581Z,22.04
2024-04-07T06:38:01.372Z,21.98
2024-04-07T06:40:31.766Z,21.86
2024-04-07T06:43:03.948Z,21.51
2024-04-07T06:45:34.361Z,20.88
2024-04-07T06:48:06.640Z,20.24
2024-04-07T06:50:37.056Z,19.29
2024-04-07T06:53:08.922Z,18.23
2024-04-07T06:55:39.658Z,18.62
2024-04-07T06:58:11.309Z,18.60
2024-04-07T07:00:41.748Z,18.10
2024-04-07T07:03:13.585Z,17.29
2024-04-07T07:05:43.914Z,17.07
2024-04-07T07:08:16.489Z,16.71
2024-04-07T07:11:01.791Z,16.86
2024-04-07T07:13:34.659Z,17.75
2024-04-07T07:16:05.514Z,17.68
2024-04-07T07:18:37.454Z,17.99
2024-04-07T07:21:08.294Z,17.41
2024-04-07T07:23:40.241Z,16.68
2024-04-07T07:26:10.665Z,15.96
2024-04-07T07:28:42.438Z,16.30
2024-04-07T07:31:12.746Z,16.48
2024-04-07T07:33:44.517Z,16.25
2024-04-07T07:36:14.938Z,16.54
2024-04-07T07:38:48.262Z,16.97
2024-04-07T07:41:21.830Z,17.41
2024-04-07T07:43:53.397Z,17.69
2024-04-07T07:46:24.116Z,17.71
2024-04-07T07:48:56.071Z,17.71
2024-04-07T07:51:26.505Z,17.93
2024-04-07T07:53:58.051Z,17.80
2024-04-07T07:56:28.692Z,17.99
2024-04-07T07:59:00.277Z,17.68
2024-04-07T08:01:31.996Z,17.62
2024-04-07T08:04:04.585Z,17.46
2024-04-07T08:06:34.997Z,17.91
2024-04-07T08:09:06.657Z,17.85
2024-04-07T08:11:37.086Z,17.52
2024-04-07T08:14:08.533Z,17.77
2024-04-07T08:16:39.063Z,17.89
2024-04-07T08:19:10.710Z,17.82
2024-04-07T08:21:41.349Z,17.55
2024-04-07T08:24:13.034Z,17.70
2024-04-07T08:26:43.324Z,17.63
2024-04-07T08:29:15.390Z,17.63
2024-04-07T08:31:45.509Z,17.88
2024-04-07T08:34:17.386Z,18.04
2024-04-07T08:36:49.951Z,17.85
2024-04-07T08:39:22.119Z,17.89
2024-04-07T08:41:52.543Z,17.70
2024-04-07T08:44:24.667Z,17.33
2024-04-07T08:46:55.684Z,17.95
2024-04-07T08:49:28.423Z,18.09
2024-04-07T08:51:58.749Z,18.87
2024-04-07T08:54:31.277Z,18.63
2024-04-07T08:57:03.984Z,18.37
2024-04-07T08:59:35.667Z,18.96
2024-04-07T09:02:05.912Z,19.11
2024-04-07T09:04:37.845Z,19.11
2024-04-07T09:07:08.373Z,19.16
2024-04-07T09:09:40.300Z,19.03
2024-04-07T09:12:11.709Z,19.58
2024-04-07T09:14:46.516Z,19.60
2024-04-07T09:17:19.307Z,20.04
2024-04-07T09:19:49.826Z,20.95
2024-04-07T09:22:21.476Z,21.07
2024-04-07T09:24:51.877Z,21.09
2024-04-07T09:27:23.661Z,21.77
2024-04-07T09:29:54.292Z,21.91
2024-04-07T09:32:25.902Z,21.83
2024-04-07T09:34:56.746Z,21.98
2024-04-07T09:37:29.100Z,22.57
2024-04-07T09:39:59.575Z,23.03
2024-04-07T09:42:32.622Z,23.52
2024-04-07T09:45:04.118Z,23.88
2024-04-07T09:47:37.352Z,24.58
2024-04-07T09:50:10.708Z,24.78
2024-04-07T09:52:45.402Z,24.49
2024-04-07T09:55:18.124Z,24.95
2024-04-07T09:57:48.542Z,25.26
2024-04-07T10:00:20.513Z,25.55
2024-04-07T10:02:50.933Z,26.19
2024-04-07T10:05:22.590Z,26.54
2024-04-07T10:07:53.634Z,26.76
2024-04-07T10:10:28.451Z,27.72
2024-04-07T10:13:10.555Z,28.10
2024-04-07T10:15:42.110Z,28.49
2024-04-07T10:18:17.038Z,28.50
2024-04-07T10:20:54.427Z,28.98
2024-04-07T10:23:29.155Z,29.56
2024-04-07T10:26:05.585Z,29.35
2024-04-07T10:28:49.793Z,29.84
2024-04-07T10:31:27.370Z,30.06
2024-04-07T10:33:59.228Z,30.50
2024-04-07T10:36:32.722Z,30.20
2024-04-07T10:39:04.667Z,30.97
2024-04-07T10:41:36.566Z,30.61
2024-04-07T10:44:10.513Z,30.86
2024-04-07T10:46:40.877Z,30.77
2024-04-07T10:49:12.744Z,30.70
2024-04-07T10:51:48.920Z,30.51
2024-04-07T10:54:20.759Z,30.72
2024-04-07T10:56:52.687Z,30.97
2024-04-07T10:59:24.174Z,31.13
2024-04-07T11:01:54.610Z,31.64
2024-04-07T11:04:27.698Z,31.79
2024-04-07T11:06:58.124Z,32.15
2024-04-07T11:09:29.674Z,32.47
2024-04-07T11:12:01.349Z,32.65
2024-04-07T11:14:33.698Z,33.06
2024-04-07T11:17:06.308Z,33.01
2024-04-07T11:19:38.026Z,33.63
2024-04-07T11:22:08.348Z,33.42
2024-04-07T11:24:40.722Z,33.66
2024-04-07T11:27:11.154Z,34.07
2024-04-07T11:29:42.907Z,33.10
2024-04-07T11:32:15.226Z,32.97
2024-04-07T11:34:47.972Z,32.79
2024-04-07T11:37:18.480Z,31.80
2024-04-07T11:39:57.167Z,30.01
2024-04-07T11:42:29.273Z,30.09
2024-04-07T11:44:59.701Z,29.34
2024-04-07T11:47:31.181Z,29.68
2024-04-07T11:50:01.741Z,29.81
2024-04-07T11:52:33.330Z,29.66
2024-04-07T11:55:04.919Z,29.50
2024-04-07T11:57:36.436Z,29.60
2024-04-07T12:00:08.566Z,29.10
2024-04-07T12:02:46.511Z,28.78
2024-04-07T12:05:18.006Z,28.82
2024-04-07T12:07:49.537Z,28.99
2024-04-07T12:10:20.138Z,29.28
2024-04-07T12:12:51.898Z,28.84
2024-04-07T12:15:22.549Z,28.75
2024-04-07T12:17:54.593Z,27.93
2024-04-07T12:20:25.223Z,28.46
2024-04-07T12:22:56.891Z,28.24
2024-04-07T12:25:28.869Z,28.94
2024-04-07T12:28:01.256Z,26.90
2024-04-07T12:30:31.768Z,26.37
2024-04-07T12:33:05.348Z,26.68
2024-04-07T12:35:36.046Z,26.73
2024-04-07T12:38:09.740Z,27.37
2024-04-07T12:40:40.203Z,27.55
2024-04-07T12:43:12.244Z,27.50
2024-04-07T12:45:43.018Z,27.65
2024-04-07T12:48:20.784Z,27.37
2024-04-07T12:50:52.365Z,26.96
2024-04-07T12:53:22.897Z,26.62
2024-04-07T12:55:54.337Z,26.84
2024-04-07T12:58:25.081Z,26.92
2024-04-07T13:00:56.515Z,27.00
2024-04-07T13:03:27.055Z,26.92
2024-04-07T13:05:59.618Z,27.15
2024-04-07T13:08:30.061Z,26.98
2024-04-07T13:11:02.663Z,26.86
2024-04-07T13:13:33.591Z,26.40
2024-04-07T13:16:05.392Z,26.64
2024-04-07T13:18:36.154Z,27.03
2024-04-07T13:21:07.815Z,27.36
2024-04-07T13:23:38.036Z,27.85
2024-04-07T13:26:10.066Z,27.61
2024-04-07T13:28:41.056Z,27.67
2024-04-07T13:31:13.098Z,27.51
2024-04-07T13:33:43.632Z,27.39
2024-04-07T13:36:15.284Z,27.98
2024-04-07T13:38:46.336Z,27.75
2024-04-07T13:41:17.984Z,28.12
2024-04-07T13:43:48.622Z,28.22
2024-04-07T13:46:20.635Z,27.85
2024-04-07T13:48:50.905Z,27.26
2024-04-07T13:51:22.656Z,28.09
2024-04-07T13:53:52.982Z,28.68
2024-04-07T13:56:24.849Z,28.57
2024-04-07T13:58:55.164Z,28.49
2024-04-07T14:01:27.024Z,28.51
2024-04-07T14:03:57.354Z,29.02
2024-04-07T14:06:29.309Z,29.33
2024-04-07T14:08:59.856Z,28.95
2024-04-07T14:11:32.218Z,29.13
2024-04-07T14:14:04.646Z,29.21
2024-04-07T14:16:37.719Z,29.78
2024-04-07T14:19:07.894Z,29.72
2024-04-07T14:21:40.205Z,29.61
2024-04-07T14:24:10.386Z,30.15
2024-04-07T14:26:42.242Z,29.62
2024-04-07T14:29:12.525Z,29.86
2024-04-07T14:31:45.252Z,30.14
2024-04-07T14:34:15.368Z,30.34
2024-04-07T14:36:47.738Z,29.91
2024-04-07T14:39:17.982Z,29.85
2024-04-07T14:41:50.516Z,30.10
2024-04-07T14:44:21.306Z,30.44
2024-04-07T14:46:53.893Z,30.81
2024-04-07T14:49:24.380Z,30.91
2024-04-07T14:51:56.548Z,30.90
2024-04-07T14:54:27.274Z,31.13
2024-04-07T14:56:59.140Z,31.46
2024-04-07T14:59:30.070Z,31.79
2024-04-07T15:02:01.731Z,31.57
2024-04-07T15:04:32.458Z,31.11
2024-04-07T15:07:04.572Z,31.61
2024-04-07T15:09:36.597Z,31.69
2024-04-07T15:12:08.563Z,31.58
2024-04-07T15:14:39.393Z,31.84
2024-04-07T15:17:12.251Z,32.38
2024-04-07T15:19:42.702Z,32.48
2024-04-07T15:22:14.863Z,32.73
2024-04-07T15:24:47.154Z,33.00
2024-04-07T15:27:20.606Z,32.93
2024-04-07T15:29:51.710Z,32.91
2024-04-07T15:32:23.228Z,33.16
2024-04-07T15:34:54.063Z,33.33
2024-04-07T15:37:25.824Z,33.38
2024-04-07T15:39:56.156Z,33.61
2024-04-07T15:42:27.594Z,33.73
2024-04-07T15:44:58.134Z,33.64
2024-04-07T15:47:29.699Z,33.89
2024-04-07T15:50:00.227Z,34.37
2024-04-07T15:52:31.863Z,34.59
2024-04-07T15:55:02.162Z,34.49
2024-04-07T15:57:33.741Z,35.07
2024-04-07T16:00:06.915Z,35.51
2024-04-07T16:02:38.788Z,35.60
2024-04-07T16:05:09.525Z,35.69
2024-04-07T16:07:41.023Z,36.08
2024-04-07T16:10:11.507Z,36.44
2024-04-07T16:12:47.805Z,36.75
2024-04-07T16:15:25.669Z,37.13
2024-04-07T16:17:56.597Z,37.60
2024-04-07T16:20:28.261Z,37.95
2024-04-07T16:22:58.476Z,38.39
2024-04-07T16:25:31.055Z,38.87
2024-04-07T16:28:04.356Z,39.22
2024-04-07T16:30:36.208Z,39.58
2024-04-07T16:33:07.348Z,39.87
2024-04-07T16:35:38.963Z,40.33
2024-04-07T16:38:09.480Z,40.43
2024-04-07T16:40:41.198Z,40.81
2024-04-07T16:43:12.741Z,41.25
2024-04-07T16:45:44.194Z,41.51
2024-04-07T16:48:16.195Z,41.71
2024-04-07T16:50:57.849Z,41.73
2024-04-07T16:53:29.609Z,42.08
2024-04-07T16:56:00.144Z,42.21
2024-04-07T16:58:31.881Z,42.53
2024-04-07T17:01:02.216Z,42.84
2024-04-07T17:03:33.969Z,43.24
2024-04-07T17:06:05.110Z,43.53
2024-04-07T17:08:39.572Z,43.76
2024-04-07T17:11:12.567Z,44.08
2024-04-07T17:13:43.154Z,44.32
2024-04-07T17:16:15.007Z,44.78
2024-04-07T17:18:45.338Z,45.09
2024-04-07T17:21:17.104Z,45.56
2024-04-07T17:23:47.519Z,45.83
2024-04-07T17:26:19.236Z,46.20
2024-04-07T17:28:49.704Z,46.59
2024-04-07T17:31:21.555Z,46.91
2024-04-07T17:33:53.360Z,47.15
2024-04-07T17:36:26.199Z,47.36
2024-04-07T17:38:56.530Z,47.74
2024-04-07T17:41:28.182Z,47.82
2024-04-07T17:43:58.403Z,48.31
2024-04-07T17:46:30.065Z,48.56
2024-04-07T17:49:00.287Z,48.76
2024-04-07T17:51:32.252Z,48.94
2024-04-07T17:54:02.566Z,49.30
2024-04-07T17:56:34.429Z,49.46
2024-04-07T17:59:04.657Z,49.45
2024-04-07T18:01:36.714Z,49.65
2024-04-07T18:04:06.936Z,49.52
2024-04-07T18:06:38.692Z,49.75
2024-04-07T18:09:08.936Z,49.94
2024-04-07T18:11:40.976Z,50.21
2024-04-07T18:14:11.437Z,50.15
2024-04-07T18:16:43.535Z,50.16
2024-04-07T18:19:14.427Z,50.40
2024-04-07T18:21:46.065Z,50.61
2024-04-07T18:24:16.487Z,51.06
2024-04-07T18:26:48.155Z,51.08
2024-04-07T18:29:18.718Z,51.42
2024-04-07T18:31:50.431Z,51.63
2024-04-07T18:34:20.958Z,51.86
2024-04-07T18:36:53.152Z,51.92
2024-04-07T18:39:23.551Z,52.25
2024-04-07T18:41:55.119Z,52.43
2024-04-07T18:44:25.611Z,52.85
2024-04-07T18:46:57.486Z,52.96
2024-04-07T18:49:28.018Z,53.09
2024-04-07T18:51:59.673Z,53.52
2024-04-07T18:54:30.207Z,53.89
2024-04-07T18:57:01.863Z,53.90
2024-04-07T18:59:32.074Z,54.10
2024-04-07T19:02:04.661Z,54.63
2024-04-07T19:04:35.086Z,54.75
2024-04-07T19:07:07.191Z,55.14
2024-04-07T19:09:37.593Z,55.37
2024-04-07T19:12:09.637Z,55.62
2024-04-07T19:14:44.369Z,55.85
2024-04-07T19:17:16.102Z,56.03
2024-04-07T19:19:47.266Z,56.23
2024-04-07T19:22:18.994Z,56.42
2024-04-07T19:24:49.347Z,56.65
2024-04-07T19:27:21.007Z,56.85
2024-04-07T19:29:54.819Z,57.19
2024-04-07T19:32:26.466Z,56.98
2024-04-07T19:34:57.402Z,57.15
2024-04-07T19:37:28.849Z,57.38
2024-04-07T19:40:00.991Z,57.61
2024-04-07T19:42:35.132Z,57.95
2024-04-07T19:45:06.586Z,57.80
2024-04-07T19:47:41.243Z,57.81
2024-04-07T19:50:14.091Z,58.37
2024-04-07T19:52:44.517Z,58.53
2024-04-07T19:55:16.781Z,58.39
2024-04-07T19:57:47.258Z,58.39
2024-04-07T20:00:19.442Z,58.50
2024-04-07T20:02:50.381Z,58.62
2024-04-07T20:05:22.082Z,58.43
2024-04-07T20:07:53.388Z,58.53
2024-04-07T20:10:25.937Z,58.62
2024-04-07T20:12:58.285Z,58.74
2024-04-07T20:15:29.820Z,58.97
2024-04-07T20:18:01.885Z,59.13
2024-04-07T20:20:33.652Z,59.08
2024-04-07T20:23:04.337Z,59.12
2024-04-07T20:25:35.835Z,59.41
2024-04-07T20:28:06.885Z,59.52
2024-04-07T20:30:38.425Z,59.69
2024-04-07T20:33:09.158Z,59.91
2024-04-07T20:35:40.606Z,59.85
2024-04-07T20:38:12.250Z,60.00
2024-04-07T20:40:43.808Z,60.52
2024-04-07T20:43:14.238Z,60.41
2024-04-07T20:45:46.202Z,60.51
2024-04-07T20:48:16.640Z,60.62
2024-04-07T20:50:48.182Z,60.91
2024-04-07T20:53:18.783Z,60.97
2024-04-07T20:55:50.496Z,61.00
2024-04-07T20:58:20.903Z,61.20
2024-04-07T21:00:52.370Z,61.38
2024-04-07T21:03:22.867Z,61.57
2024-04-07T21:05:54.528Z,61.74
2024-04-07T21:08:25.393Z,61.77
2024-04-07T21:10:57.061Z,61.78
2024-04-07T21:13:27.766Z,62.45
2024-04-07T21:16:00.228Z,62.43
2024-04-07T21:18:30.656Z,62.58
2024-04-07T21:21:02.206Z,62.75
2024-04-07T21:23:33.593Z,63.16
2024-04-07T21:26:05.213Z,63.29
2024-04-07T21:28:38.501Z,63.37
2024-04-07T21:31:10.050Z,63.23
2024-04-07T21:33:40.503Z,63.38
2024-04-07T21:36:12.750Z,63.50
2024-04-07T21:38:43.183Z,63.82
2024-04-07T21:41:15.105Z,63.67
2024-04-07T21:43:45.663Z,63.79
2024-04-07T21:46:17.328Z,64.01
2024-04-07T21:48:49.009Z,63.88
2024-04-07T21:51:20.734Z,64.16
2024-04-07T21:53:51.363Z,64.03
2024-04-07T21:56:23.019Z,64.03
2024-04-07T21:58:53.856Z,64.24
2024-04-07T22:01:25.708Z,64.40
2024-04-07T22:03:55.863Z,64.39
2024-04-07T22:06:27.699Z,64.38
2024-04-07T22:08:59.352Z,64.36
2024-04-07T22:11:31.151Z,64.77
2024-04-07T22:14:01.638Z,64.79
2024-04-07T22:16:33.301Z,64.80
2024-04-07T22:19:04.054Z,64.86
2024-04-07T22:21:35.986Z,64.93
2024-04-07T22:24:07.232Z,64.98
2024-04-07T22:26:38.890Z,65.07
2024-04-07T22:29:09.005Z,65.32
2024-04-07T22:31:40.867Z,65.34
2024-04-07T22:34:11.191Z,65.34
2024-04-07T22:36:43.129Z,65.31
2024-04-07T22:39:13.386Z,65.47
2024-04-07T22:41:45.139Z,65.68
2024-04-07T22:44:15.461Z,65.80
2024-04-07T22:46:47.212Z,65.83
2024-04-07T22:49:17.534Z,65.98
2024-04-07T22:51:49.192Z,66.06
2024-04-07T22:54:20.544Z,66.17
2024-04-07T22:56:52.091Z,66.33
2024-04-07T22:59:22.598Z,66.70
2024-04-07T23:01:54.272Z,66.55
2024-04-07T23:04:25.109Z,66.75
2024-04-07T23:06:57.075Z,66.85
2024-04-07T23:09:27.504Z,66.95
2024-04-07T23:11:59.206Z,67.17
2024-04-07T23:14:29.733Z,66.85
2024-04-07T23:17:01.442Z,66.76
2024-04-07T23:19:31.964Z,66.68
2024-04-07T23:22:03.727Z,66.67
2024-04-07T23:24:34.155Z,66.63
2024-04-07T23:27:06.119Z,66.37
2024-04-07T23:29:36.577Z,66.33
2024-04-07T23:32:08.400Z,66.14
2024-04-07T23:34:38.940Z,66.17
2024-04-07T23:37:10.679Z,65.93
2024-04-07T23:39:41.522Z,65.65
2024-04-07T23:42:13.381Z,65.65
2024-04-07T23:44:44.014Z,65.65
2024-04-07T23:47:16.073Z,65.51
2024-04-07T23:49:46.502Z,65.35
2024-04-07T23:52:18.168Z,65.35
2024-04-07T23:54:48.585Z,65.38
2024-04-07T23:57:20.343Z,65.53
2024-04-07T23:59:50.774Z,65.26
